sensor_id;sensor_type;location;lat;lon;timestamp;P1;durP1;ratioP1;P2;durP2;ratioP2
11066;SDS011;29763;50.904;5.530;2022-10-16T00:01:42;4.32;;;2.03;;
11066;SDS011;29763;50.904;5.530;2022-10-16T00:04:08;2.05;;;1.85;;
11066;SDS011;29763;50.904;5.530;2022-10-16T00:06:34;4.03;;;2.40;;
11066;SDS011;29763;50.904;5.530;2022-10-16T00:09:00;4.50;;;1.85;;
11066;SDS011;29763;50.904;5.530;2022-10-16T00:11:27;2.50;;;1.63;;
11066;SDS011;29763;50.904;5.530;2022-10-16T00:14:01;3.35;;;1.63;;
11066;SDS011;29763;50.904;5.530;2022-10-16T00:16:29;2.65;;;1.90;;
11066;SDS011;29763;50.904;5.530;2022-10-16T00:18:55;1.65;;;1.52;;
11066;SDS011;29763;50.904;5.530;2022-10-16T00:21:22;2.17;;;1.50;;
11066;SDS011;29763;50.904;5.530;2022-10-16T00:23:50;2.65;;;1.70;;
11066;SDS011;29763;50.904;5.530;2022-10-16T00:26:17;3.40;;;1.60;;
11066;SDS011;29763;50.904;5.530;2022-10-16T00:28:47;4.40;;;2.00;;
11066;SDS011;29763;50.904;5.530;2022-10-16T00:31:15;2.78;;;1.70;;
11066;SDS011;29763;50.904;5.530;2022-10-16T00:33:41;4.30;;;1.70;;
11066;SDS011;29763;50.904;5.530;2022-10-16T00:36:09;4.45;;;1.80;;
11066;SDS011;29763;50.904;5.530;2022-10-16T00:38:37;2.92;;;1.60;;
11066;SDS011;29763;50.904;5.530;2022-10-16T00:41:03;3.70;;;2.03;;
11066;SDS011;29763;50.904;5.530;2022-10-16T00:43:45;2.42;;;1.70;;
11066;SDS011;29763;50.904;5.530;2022-10-16T00:48:45;4.03;;;1.88;;
11066;SDS011;29763;50.904;5.530;2022-10-16T00:51:35;3.97;;;2.08;;
11066;SDS011;29763;50.904;5.530;2022-10-16T00:54:10;4.35;;;2.10;;
11066;SDS011;29763;50.904;5.530;2022-10-16T00:56:41;4.30;;;2.30;;
11066;SDS011;29763;50.904;5.530;2022-10-16T00:59:11;2.75;;;1.70;;
11066;SDS011;29763;50.904;5.530;2022-10-16T01:01:49;4.18;;;2.17;;
11066;SDS011;29763;50.904;5.530;2022-10-16T01:04:16;2.22;;;2.03;;
11066;SDS011;29763;50.904;5.530;2022-10-16T01:09:21;3.35;;;1.83;;
11066;SDS011;29763;50.904;5.530;2022-10-16T01:12:08;2.10;;;1.73;;
11066;SDS011;29763;50.904;5.530;2022-10-16T01:14:49;2.53;;;1.85;;
11066;SDS011;29763;50.904;5.530;2022-10-16T01:20:42;2.92;;;2.03;;
11066;SDS011;29763;50.904;5.530;2022-10-16T01:23:36;2.60;;;1.92;;
11066;SDS011;29763;50.904;5.530;2022-10-16T01:26:23;2.75;;;1.95;;
11066;SDS011;29763;50.904;5.530;2022-10-16T01:29:25;3.35;;;1.90;;
11066;SDS011;29763;50.904;5.530;2022-10-16T01:32:00;2.30;;;1.67;;
11066;SDS011;29763;50.904;5.530;2022-10-16T01:34:37;2.13;;;1.63;;
11066;SDS011;29763;50.904;5.530;2022-10-16T01:37:09;2.58;;;1.80;;
11066;SDS011;29763;50.904;5.530;2022-10-16T01:39:39;2.60;;;2.00;;
11066;SDS011;29763;50.904;5.530;2022-10-16T01:42:19;4.20;;;2.25;;
11066;SDS011;29763;50.904;5.530;2022-10-16T01:44:49;5.00;;;2.45;;
11066;SDS011;29763;50.904;5.530;2022-10-16T01:47:17;3.20;;;2.90;;
11066;SDS011;29763;50.904;5.530;2022-10-16T01:49:47;5.40;;;2.70;;
11066;SDS011;29763;50.904;5.530;2022-10-16T01:52:17;2.50;;;2.10;;
11066;SDS011;29763;50.904;5.530;2022-10-16T01:54:47;3.22;;;1.75;;
11066;SDS011;29763;50.904;5.530;2022-10-16T01:57:16;1.90;;;1.67;;
11066;SDS011;29763;50.904;5.530;2022-10-16T01:59:48;3.10;;;1.83;;
11066;SDS011;29763;50.904;5.530;2022-10-16T02:02:17;3.45;;;1.70;;
11066;SDS011;29763;50.904;5.530;2022-10-16T02:05:10;2.25;;;1.50;;
11066;SDS011;29763;50.904;5.530;2022-10-16T02:07:39;1.65;;;1.55;;
11066;SDS011;29763;50.904;5.530;2022-10-16T02:10:07;5.53;;;1.73;;
11066;SDS011;29763;50.904;5.530;2022-10-16T02:12:34;3.25;;;2.00;;
11066;SDS011;29763;50.904;5.530;2022-10-16T02:15:04;1.83;;;1.70;;
11066;SDS011;29763;50.904;5.530;2022-10-16T02:17:33;3.30;;;1.90;;
11066;SDS011;29763;50.904;5.530;2022-10-16T02:19:59;1.80;;;1.70;;
11066;SDS011;29763;50.904;5.530;2022-10-16T02:22:33;2.63;;;1.80;;
11066;SDS011;29763;50.904;5.530;2022-10-16T02:25:10;1.77;;;1.63;;
11066;SDS011;29763;50.904;5.530;2022-10-16T02:28:24;3.88;;;1.98;;
11066;SDS011;29763;50.904;5.530;2022-10-16T02:30:44;2.85;;;1.90;;
11066;SDS011;29763;50.904;5.530;2022-10-16T02:33:19;3.22;;;1.83;;
11066;SDS011;29763;50.904;5.530;2022-10-16T02:35:47;4.13;;;1.90;;
11066;SDS011;29763;50.904;5.530;2022-10-16T02:38:16;3.10;;;1.80;;
11066;SDS011;29763;50.904;5.530;2022-10-16T02:40:43;2.00;;;1.67;;
11066;SDS011;29763;50.904;5.530;2022-10-16T02:43:10;3.05;;;1.83;;
11066;SDS011;29763;50.904;5.530;2022-10-16T02:45:37;2.53;;;2.00;;
11066;SDS011;29763;50.904;5.530;2022-10-16T02:48:03;2.13;;;1.70;;
11066;SDS011;29763;50.904;5.530;2022-10-16T02:50:32;4.07;;;1.92;;
11066;SDS011;29763;50.904;5.530;2022-10-16T02:52:58;5.95;;;2.00;;
11066;SDS011;29763;50.904;5.530;2022-10-16T02:55:30;2.40;;;1.70;;
11066;SDS011;29763;50.904;5.530;2022-10-16T02:57:55;2.45;;;1.90;;
11066;SDS011;29763;50.904;5.530;2022-10-16T03:00:24;3.30;;;1.92;;
11066;SDS011;29763;50.904;5.530;2022-10-16T03:02:50;2.97;;;1.95;;
11066;SDS011;29763;50.904;5.530;2022-10-16T03:05:27;4.43;;;2.15;;
11066;SDS011;29763;50.904;5.530;2022-10-16T03:07:53;6.80;;;2.10;;
11066;SDS011;29763;50.904;5.530;2022-10-16T03:10:28;3.50;;;2.00;;
11066;SDS011;29763;50.904;5.530;2022-10-16T03:12:56;2.05;;;1.90;;
11066;SDS011;29763;50.904;5.530;2022-10-16T03:15:22;2.25;;;1.80;;
11066;SDS011;29763;50.904;5.530;2022-10-16T03:17:48;2.30;;;2.05;;
11066;SDS011;29763;50.904;5.530;2022-10-16T03:20:17;2.72;;;1.90;;
11066;SDS011;29763;50.904;5.530;2022-10-16T03:22:42;1.83;;;1.67;;
11066;SDS011;29763;50.904;5.530;2022-10-16T03:25:08;4.97;;;2.10;;
11066;SDS011;29763;50.904;5.530;2022-10-16T03:27:34;3.42;;;2.03;;
11066;SDS011;29763;50.904;5.530;2022-10-16T03:30:00;4.38;;;2.10;;
11066;SDS011;29763;50.904;5.530;2022-10-16T03:32:26;2.20;;;2.05;;
11066;SDS011;29763;50.904;5.530;2022-10-16T03:34:53;2.63;;;2.10;;
11066;SDS011;29763;50.904;5.530;2022-10-16T03:37:21;3.30;;;2.50;;
11066;SDS011;29763;50.904;5.530;2022-10-16T03:39:47;3.50;;;2.30;;
11066;SDS011;29763;50.904;5.530;2022-10-16T03:42:13;3.78;;;2.50;;
11066;SDS011;29763;50.904;5.530;2022-10-16T03:44:38;2.85;;;2.50;;
11066;SDS011;29763;50.904;5.530;2022-10-16T03:47:07;3.80;;;2.50;;
11066;SDS011;29763;50.904;5.530;2022-10-16T03:49:33;2.50;;;2.30;;
11066;SDS011;29763;50.904;5.530;2022-10-16T03:51:58;6.18;;;2.83;;
11066;SDS011;29763;50.904;5.530;2022-10-16T03:54:24;2.65;;;2.08;;
11066;SDS011;29763;50.904;5.530;2022-10-16T03:56:50;3.28;;;2.45;;
11066;SDS011;29763;50.904;5.530;2022-10-16T03:59:16;5.88;;;2.50;;
11066;SDS011;29763;50.904;5.530;2022-10-16T04:01:41;3.20;;;2.47;;
11066;SDS011;29763;50.904;5.530;2022-10-16T04:04:07;3.10;;;2.40;;
11066;SDS011;29763;50.904;5.530;2022-10-16T04:06:33;4.75;;;2.50;;
11066;SDS011;29763;50.904;5.530;2022-10-16T04:08:59;3.03;;;2.70;;
11066;SDS011;29763;50.904;5.530;2022-10-16T04:11:25;5.35;;;3.05;;
11066;SDS011;29763;50.904;5.530;2022-10-16T04:13:50;3.40;;;3.03;;
11066;SDS011;29763;50.904;5.530;2022-10-16T04:16:16;4.65;;;2.55;;
11066;SDS011;29763;50.904;5.530;2022-10-16T04:18:42;5.35;;;2.60;;
11066;SDS011;29763;50.904;5.530;2022-10-16T04:21:08;4.35;;;2.92;;
11066;SDS011;29763;50.904;5.530;2022-10-16T04:23:33;4.22;;;2.50;;
11066;SDS011;29763;50.904;5.530;2022-10-16T04:25:59;2.80;;;2.60;;
11066;SDS011;29763;50.904;5.530;2022-10-16T04:28:25;2.80;;;2.60;;
11066;SDS011;29763;50.904;5.530;2022-10-16T04:30:51;3.17;;;2.88;;
11066;SDS011;29763;50.904;5.530;2022-10-16T04:33:17;3.80;;;2.60;;
11066;SDS011;29763;50.904;5.530;2022-10-16T04:35:43;3.83;;;3.08;;
11066;SDS011;29763;50.904;5.530;2022-10-16T04:38:09;3.53;;;3.22;;
11066;SDS011;29763;50.904;5.530;2022-10-16T04:40:35;4.57;;;3.10;;
11066;SDS011;29763;50.904;5.530;2022-10-16T04:43:04;3.35;;;3.05;;
11066;SDS011;29763;50.904;5.530;2022-10-16T04:45:30;3.58;;;3.28;;
11066;SDS011;29763;50.904;5.530;2022-10-16T04:47:57;4.65;;;3.00;;
11066;SDS011;29763;50.904;5.530;2022-10-16T04:50:23;4.15;;;3.63;;
11066;SDS011;29763;50.904;5.530;2022-10-16T04:52:49;4.03;;;3.53;;
11066;SDS011;29763;50.904;5.530;2022-10-16T04:55:14;3.80;;;3.50;;
11066;SDS011;29763;50.904;5.530;2022-10-16T04:57:43;4.97;;;3.80;;
11066;SDS011;29763;50.904;5.530;2022-10-16T05:00:09;4.05;;;3.40;;
11066;SDS011;29763;50.904;5.530;2022-10-16T05:02:35;4.82;;;3.40;;
11066;SDS011;29763;50.904;5.530;2022-10-16T05:05:01;4.70;;;3.35;;
11066;SDS011;29763;50.904;5.530;2022-10-16T05:07:26;4.50;;;3.55;;
11066;SDS011;29763;50.904;5.530;2022-10-16T05:09:52;4.20;;;3.78;;
11066;SDS011;29763;50.904;5.530;2022-10-16T05:12:18;5.07;;;3.75;;
11066;SDS011;29763;50.904;5.530;2022-10-16T05:14:44;5.72;;;3.70;;
11066;SDS011;29763;50.904;5.530;2022-10-16T05:17:10;7.85;;;4.70;;
11066;SDS011;29763;50.904;5.530;2022-10-16T05:19:36;8.02;;;4.45;;
11066;SDS011;29763;50.904;5.530;2022-10-16T05:22:02;4.97;;;3.88;;
11066;SDS011;29763;50.904;5.530;2022-10-16T05:24:27;4.82;;;4.35;;
11066;SDS011;29763;50.904;5.530;2022-10-16T05:26:53;7.32;;;4.40;;
11066;SDS011;29763;50.904;5.530;2022-10-16T05:29:19;6.47;;;4.38;;
11066;SDS011;29763;50.904;5.530;2022-10-16T05:31:45;5.47;;;4.50;;
11066;SDS011;29763;50.904;5.530;2022-10-16T05:34:11;6.88;;;4.55;;
11066;SDS011;29763;50.904;5.530;2022-10-16T05:36:37;6.78;;;4.93;;
11066;SDS011;29763;50.904;5.530;2022-10-16T05:39:03;9.07;;;5.30;;
11066;SDS011;29763;50.904;5.530;2022-10-16T05:41:31;5.45;;;4.65;;
11066;SDS011;29763;50.904;5.530;2022-10-16T05:43:57;7.85;;;5.18;;
11066;SDS011;29763;50.904;5.530;2022-10-16T05:46:22;8.95;;;5.20;;
11066;SDS011;29763;50.904;5.530;2022-10-16T05:48:51;8.45;;;5.35;;
11066;SDS011;29763;50.904;5.530;2022-10-16T05:51:18;8.93;;;4.60;;
11066;SDS011;29763;50.904;5.530;2022-10-16T05:53:43;5.38;;;4.45;;
11066;SDS011;29763;50.904;5.530;2022-10-16T05:56:10;10.18;;;4.78;;
11066;SDS011;29763;50.904;5.530;2022-10-16T05:58:37;6.95;;;5.32;;
11066;SDS011;29763;50.904;5.530;2022-10-16T06:01:15;9.70;;;5.05;;
11066;SDS011;29763;50.904;5.530;2022-10-16T06:03:42;7.07;;;4.50;;
11066;SDS011;29763;50.904;5.530;2022-10-16T06:06:16;7.22;;;4.32;;
11066;SDS011;29763;50.904;5.530;2022-10-16T06:08:45;7.43;;;4.53;;
11066;SDS011;29763;50.904;5.530;2022-10-16T06:11:14;7.95;;;4.70;;
11066;SDS011;29763;50.904;5.530;2022-10-16T06:13:44;6.85;;;4.20;;
11066;SDS011;29763;50.904;5.530;2022-10-16T06:16:17;8.50;;;4.68;;
11066;SDS011;29763;50.904;5.530;2022-10-16T06:18:43;9.88;;;4.55;;
11066;SDS011;29763;50.904;5.530;2022-10-16T06:21:12;7.22;;;4.82;;
11066;SDS011;29763;50.904;5.530;2022-10-16T06:23:41;6.18;;;4.88;;
11066;SDS011;29763;50.904;5.530;2022-10-16T06:26:07;5.65;;;4.22;;
11066;SDS011;29763;50.904;5.530;2022-10-16T06:28:35;8.02;;;5.28;;
11066;SDS011;29763;50.904;5.530;2022-10-16T06:31:01;7.18;;;5.03;;
11066;SDS011;29763;50.904;5.530;2022-10-16T06:33:27;7.47;;;4.95;;
11066;SDS011;29763;50.904;5.530;2022-10-16T06:35:53;7.03;;;4.82;;
11066;SDS011;29763;50.904;5.530;2022-10-16T06:38:25;7.13;;;4.93;;
11066;SDS011;29763;50.904;5.530;2022-10-16T06:40:50;7.35;;;4.80;;
11066;SDS011;29763;50.904;5.530;2022-10-16T06:43:18;7.57;;;4.80;;
11066;SDS011;29763;50.904;5.530;2022-10-16T06:45:49;5.07;;;3.80;;
11066;SDS011;29763;50.904;5.530;2022-10-16T06:48:19;8.85;;;4.70;;
11066;SDS011;29763;50.904;5.530;2022-10-16T06:51:08;6.30;;;4.10;;
11066;SDS011;29763;50.904;5.530;2022-10-16T06:53:32;5.93;;;5.25;;
11066;SDS011;29763;50.904;5.530;2022-10-16T06:56:15;7.35;;;5.43;;
11066;SDS011;29763;50.904;5.530;2022-10-16T06:58:42;10.27;;;5.93;;
11066;SDS011;29763;50.904;5.530;2022-10-16T07:01:09;5.28;;;4.78;;
11066;SDS011;29763;50.904;5.530;2022-10-16T07:03:42;7.10;;;5.30;;
11066;SDS011;29763;50.904;5.530;2022-10-16T07:06:10;8.18;;;6.30;;
11066;SDS011;29763;50.904;5.530;2022-10-16T07:08:38;9.88;;;5.82;;
11066;SDS011;29763;50.904;5.530;2022-10-16T07:11:15;10.32;;;5.90;;
11066;SDS011;29763;50.904;5.530;2022-10-16T07:13:45;5.10;;;4.60;;
11066;SDS011;29763;50.904;5.530;2022-10-16T07:16:13;5.30;;;4.10;;
11066;SDS011;29763;50.904;5.530;2022-10-16T07:18:41;6.80;;;4.18;;
11066;SDS011;29763;50.904;5.530;2022-10-16T07:21:31;5.25;;;4.40;;
11066;SDS011;29763;50.904;5.530;2022-10-16T07:24:02;6.88;;;4.43;;
11066;SDS011;29763;50.904;5.530;2022-10-16T07:26:30;6.03;;;4.22;;
11066;SDS011;29763;50.904;5.530;2022-10-16T07:29:05;7.47;;;3.58;;
11066;SDS011;29763;50.904;5.530;2022-10-16T07:31:42;6.05;;;3.60;;
11066;SDS011;29763;50.904;5.530;2022-10-16T07:34:08;7.47;;;4.80;;
11066;SDS011;29763;50.904;5.530;2022-10-16T07:36:34;7.10;;;4.30;;
11066;SDS011;29763;50.904;5.530;2022-10-16T07:39:03;6.63;;;3.70;;
11066;SDS011;29763;50.904;5.530;2022-10-16T07:41:32;5.28;;;3.45;;
11066;SDS011;29763;50.904;5.530;2022-10-16T07:44:04;8.65;;;4.93;;
11066;SDS011;29763;50.904;5.530;2022-10-16T07:46:33;7.07;;;5.60;;
11066;SDS011;29763;50.904;5.530;2022-10-16T07:49:01;8.10;;;4.82;;
11066;SDS011;29763;50.904;5.530;2022-10-16T07:51:37;5.05;;;3.92;;
11066;SDS011;29763;50.904;5.530;2022-10-16T07:54:26;5.70;;;4.70;;
11066;SDS011;29763;50.904;5.530;2022-10-16T07:57:01;7.07;;;4.35;;
11066;SDS011;29763;50.904;5.530;2022-10-16T07:59:45;8.18;;;4.20;;
11066;SDS011;29763;50.904;5.530;2022-10-16T08:02:11;5.47;;;3.35;;
11066;SDS011;29763;50.904;5.530;2022-10-16T08:04:37;7.45;;;4.60;;
11066;SDS011;29763;50.904;5.530;2022-10-16T08:07:03;5.22;;;3.10;;
11066;SDS011;29763;50.904;5.530;2022-10-16T08:09:34;3.92;;;3.05;;
11066;SDS011;29763;50.904;5.530;2022-10-16T08:12:00;6.85;;;3.80;;
11066;SDS011;29763;50.904;5.530;2022-10-16T08:14:39;7.20;;;4.47;;
11066;SDS011;29763;50.904;5.530;2022-10-16T08:17:05;7.38;;;4.63;;
11066;SDS011;29763;50.904;5.530;2022-10-16T08:19:30;5.20;;;3.65;;
11066;SDS011;29763;50.904;5.530;2022-10-16T08:21:59;6.82;;;4.10;;
11066;SDS011;29763;50.904;5.530;2022-10-16T08:24:47;9.93;;;4.90;;
11066;SDS011;29763;50.904;5.530;2022-10-16T08:27:34;9.05;;;4.60;;
11066;SDS011;29763;50.904;5.530;2022-10-16T08:30:00;5.95;;;4.60;;
11066;SDS011;29763;50.904;5.530;2022-10-16T08:32:26;7.50;;;3.70;;
11066;SDS011;29763;50.904;5.530;2022-10-16T08:34:52;5.78;;;3.35;;
11066;SDS011;29763;50.904;5.530;2022-10-16T08:37:23;6.85;;;3.30;;
11066;SDS011;29763;50.904;5.530;2022-10-16T08:39:51;9.45;;;3.53;;
11066;SDS011;29763;50.904;5.530;2022-10-16T08:45:39;2.47;;;1.70;;
11066;SDS011;29763;50.904;5.530;2022-10-16T08:48:41;4.35;;;3.00;;
11066;SDS011;29763;50.904;5.530;2022-10-16T08:51:32;4.72;;;3.00;;
11066;SDS011;29763;50.904;5.530;2022-10-16T08:54:04;5.22;;;2.30;;
11066;SDS011;29763;50.904;5.530;2022-10-16T08:56:56;3.45;;;2.00;;
11066;SDS011;29763;50.904;5.530;2022-10-16T08:59:40;3.55;;;1.88;;
11066;SDS011;29763;50.904;5.530;2022-10-16T09:05:35;4.10;;;2.50;;
11066;SDS011;29763;50.904;5.530;2022-10-16T09:09:02;4.47;;;1.95;;
11066;SDS011;29763;50.904;5.530;2022-10-16T09:11:52;3.42;;;2.00;;
11066;SDS011;29763;50.904;5.530;2022-10-16T09:20:55;5.97;;;1.98;;
11066;SDS011;29763;50.904;5.530;2022-10-16T09:23:09;3.95;;;1.95;;
11066;SDS011;29763;50.904;5.530;2022-10-16T09:25:43;3.78;;;1.77;;
11066;SDS011;29763;50.904;5.530;2022-10-16T09:28:14;4.28;;;1.80;;
11066;SDS011;29763;50.904;5.530;2022-10-16T09:30:42;5.15;;;2.00;;
11066;SDS011;29763;50.904;5.530;2022-10-16T09:33:11;1.38;;;1.25;;
11066;SDS011;29763;50.904;5.530;2022-10-16T09:35:51;2.22;;;1.60;;
11066;SDS011;29763;50.904;5.530;2022-10-16T09:38:26;4.97;;;1.95;;
11066;SDS011;29763;50.904;5.530;2022-10-16T09:40:58;2.28;;;1.60;;
11066;SDS011;29763;50.904;5.530;2022-10-16T09:43:31;3.05;;;1.75;;
11066;SDS011;29763;50.904;5.530;2022-10-16T09:49:19;3.63;;;1.90;;
11066;SDS011;29763;50.904;5.530;2022-10-16T09:52:04;3.40;;;1.50;;
11066;SDS011;29763;50.904;5.530;2022-10-16T09:54:36;2.67;;;1.48;;
11066;SDS011;29763;50.904;5.530;2022-10-16T09:57:21;2.47;;;1.48;;
11066;SDS011;29763;50.904;5.530;2022-10-16T09:59:51;2.38;;;1.80;;
11066;SDS011;29763;50.904;5.530;2022-10-16T10:02:31;3.17;;;1.60;;
11066;SDS011;29763;50.904;5.530;2022-10-16T10:05:00;5.13;;;1.60;;
11066;SDS011;29763;50.904;5.530;2022-10-16T10:07:32;4.18;;;1.40;;
11066;SDS011;29763;50.904;5.530;2022-10-16T10:10:03;3.30;;;1.70;;
11066;SDS011;29763;50.904;5.530;2022-10-16T10:12:31;5.78;;;1.83;;
11066;SDS011;29763;50.904;5.530;2022-10-16T10:15:03;1.95;;;1.33;;
11066;SDS011;29763;50.904;5.530;2022-10-16T10:17:45;4.55;;;1.58;;
11066;SDS011;29763;50.904;5.530;2022-10-16T10:20:26;4.57;;;2.08;;
11066;SDS011;29763;50.904;5.530;2022-10-16T10:23:00;3.92;;;1.67;;
11066;SDS011;29763;50.904;5.530;2022-10-16T10:25:48;4.40;;;1.60;;
11066;SDS011;29763;50.904;5.530;2022-10-16T10:31:20;3.80;;;1.30;;
11066;SDS011;29763;50.904;5.530;2022-10-16T10:33:57;2.40;;;1.25;;
11066;SDS011;29763;50.904;5.530;2022-10-16T10:44:37;1.70;;;1.40;;
11066;SDS011;29763;50.904;5.530;2022-10-16T10:47:27;2.78;;;1.60;;
11066;SDS011;29763;50.904;5.530;2022-10-16T10:50:14;2.70;;;1.60;;
11066;SDS011;29763;50.904;5.530;2022-10-16T10:52:51;4.55;;;1.80;;
11066;SDS011;29763;50.904;5.530;2022-10-16T10:55:43;1.90;;;1.33;;
11066;SDS011;29763;50.904;5.530;2022-10-16T10:58:29;3.88;;;1.63;;
11066;SDS011;29763;50.904;5.530;2022-10-16T11:07:13;3.85;;;1.80;;
11066;SDS011;29763;50.904;5.530;2022-10-16T11:10:00;1.85;;;1.30;;
11066;SDS011;29763;50.904;5.530;2022-10-16T11:12:40;4.35;;;1.77;;
11066;SDS011;29763;50.904;5.530;2022-10-16T11:18:08;4.65;;;1.80;;
11066;SDS011;29763;50.904;5.530;2022-10-16T11:20:49;4.22;;;1.60;;
11066;SDS011;29763;50.904;5.530;2022-10-16T11:23:23;4.72;;;1.77;;
11066;SDS011;29763;50.904;5.530;2022-10-16T11:26:12;2.88;;;1.20;;
11066;SDS011;29763;50.904;5.530;2022-10-16T11:28:46;3.55;;;1.40;;
11066;SDS011;29763;50.904;5.530;2022-10-16T11:31:57;3.20;;;1.40;;
11066;SDS011;29763;50.904;5.530;2022-10-16T11:37:11;2.65;;;1.50;;
11066;SDS011;29763;50.904;5.530;2022-10-16T11:39:44;2.20;;;1.30;;
11066;SDS011;29763;50.904;5.530;2022-10-16T11:42:10;3.17;;;1.30;;
11066;SDS011;29763;50.904;5.530;2022-10-16T11:47:40;3.55;;;1.60;;
11066;SDS011;29763;50.904;5.530;2022-10-16T11:50:17;2.88;;;1.58;;
11066;SDS011;29763;50.904;5.530;2022-10-16T11:55:42;3.03;;;1.40;;
11066;SDS011;29763;50.904;5.530;2022-10-16T11:58:17;3.03;;;1.52;;
11066;SDS011;29763;50.904;5.530;2022-10-16T12:06:25;3.78;;;1.42;;
11066;SDS011;29763;50.904;5.530;2022-10-16T12:09:09;6.10;;;1.60;;
11066;SDS011;29763;50.904;5.530;2022-10-16T12:11:51;4.25;;;1.75;;
11066;SDS011;29763;50.904;5.530;2022-10-16T12:14:34;1.73;;;1.40;;
11066;SDS011;29763;50.904;5.530;2022-10-16T12:17:03;3.25;;;1.50;;
11066;SDS011;29763;50.904;5.530;2022-10-16T12:20:12;1.42;;;1.10;;
11066;SDS011;29763;50.904;5.530;2022-10-16T12:23:02;2.13;;;1.45;;
11066;SDS011;29763;50.904;5.530;2022-10-16T12:25:33;3.90;;;1.40;;
11066;SDS011;29763;50.904;5.530;2022-10-16T12:30:42;3.13;;;1.35;;
11066;SDS011;29763;50.904;5.530;2022-10-16T12:35:50;3.40;;;1.33;;
11066;SDS011;29763;50.904;5.530;2022-10-16T12:38:26;2.97;;;1.60;;
11066;SDS011;29763;50.904;5.530;2022-10-16T12:46:04;1.70;;;1.40;;
11066;SDS011;29763;50.904;5.530;2022-10-16T12:48:46;1.63;;;1.23;;
11066;SDS011;29763;50.904;5.530;2022-10-16T12:54:37;1.27;;;1.10;;
11066;SDS011;29763;50.904;5.530;2022-10-16T13:13:29;3.50;;;1.15;;
11066;SDS011;29763;50.904;5.530;2022-10-16T13:16:42;2.75;;;1.58;;
11066;SDS011;29763;50.904;5.530;2022-10-16T13:19:20;5.90;;;1.45;;
11066;SDS011;29763;50.904;5.530;2022-10-16T13:21:56;3.08;;;1.52;;
11066;SDS011;29763;50.904;5.530;2022-10-16T13:27:05;3.28;;;1.50;;
11066;SDS011;29763;50.904;5.530;2022-10-16T13:29:59;2.90;;;1.33;;
11066;SDS011;29763;50.904;5.530;2022-10-16T13:32:35;2.33;;;1.30;;
11066;SDS011;29763;50.904;5.530;2022-10-16T13:35:01;5.20;;;1.60;;
11066;SDS011;29763;50.904;5.530;2022-10-16T13:37:29;3.90;;;1.73;;
11066;SDS011;29763;50.904;5.530;2022-10-16T13:42:50;2.42;;;1.20;;
11066;SDS011;29763;50.904;5.530;2022-10-16T13:45:22;2.47;;;1.30;;
11066;SDS011;29763;50.904;5.530;2022-10-16T13:50:57;1.77;;;1.10;;
11066;SDS011;29763;50.904;5.530;2022-10-16T13:53:24;3.13;;;1.80;;
11066;SDS011;29763;50.904;5.530;2022-10-16T13:55:50;2.90;;;1.52;;
11066;SDS011;29763;50.904;5.530;2022-10-16T13:58:16;4.18;;;1.35;;
11066;SDS011;29763;50.904;5.530;2022-10-16T14:03:42;4.63;;;1.48;;
11066;SDS011;29763;50.904;5.530;2022-10-16T14:06:16;2.00;;;1.70;;
11066;SDS011;29763;50.904;5.530;2022-10-16T14:08:48;2.00;;;1.38;;
11066;SDS011;29763;50.904;5.530;2022-10-16T14:11:32;4.50;;;2.20;;
11066;SDS011;29763;50.904;5.530;2022-10-16T14:14:01;5.95;;;2.35;;
11066;SDS011;29763;50.904;5.530;2022-10-16T14:16:28;2.40;;;1.60;;
11066;SDS011;29763;50.904;5.530;2022-10-16T14:19:04;5.13;;;1.40;;
11066;SDS011;29763;50.904;5.530;2022-10-16T14:21:31;2.03;;;1.08;;
11066;SDS011;29763;50.904;5.530;2022-10-16T14:23:58;1.95;;;1.02;;
11066;SDS011;29763;50.904;5.530;2022-10-16T14:26:27;2.55;;;1.27;;
11066;SDS011;29763;50.904;5.530;2022-10-16T14:32:01;3.55;;;1.00;;
11066;SDS011;29763;50.904;5.530;2022-10-16T14:34:38;2.05;;;1.15;;
11066;SDS011;29763;50.904;5.530;2022-10-16T14:37:09;3.08;;;1.13;;
11066;SDS011;29763;50.904;5.530;2022-10-16T14:39:53;2.47;;;1.10;;
11066;SDS011;29763;50.904;5.530;2022-10-16T14:42:20;3.97;;;1.13;;
11066;SDS011;29763;50.904;5.530;2022-10-16T14:44:51;3.58;;;1.20;;
11066;SDS011;29763;50.904;5.530;2022-10-16T14:47:19;2.22;;;1.23;;
11066;SDS011;29763;50.904;5.530;2022-10-16T14:49:50;3.72;;;1.20;;
11066;SDS011;29763;50.904;5.530;2022-10-16T14:52:16;1.80;;;1.15;;
11066;SDS011;29763;50.904;5.530;2022-10-16T14:54:42;4.25;;;1.20;;
11066;SDS011;29763;50.904;5.530;2022-10-16T14:57:18;3.40;;;1.10;;
11066;SDS011;29763;50.904;5.530;2022-10-16T14:59:45;1.60;;;1.08;;
11066;SDS011;29763;50.904;5.530;2022-10-16T15:02:20;2.10;;;1.10;;
11066;SDS011;29763;50.904;5.530;2022-10-16T15:04:50;1.75;;;1.20;;
11066;SDS011;29763;50.904;5.530;2022-10-16T15:07:16;2.63;;;1.50;;
11066;SDS011;29763;50.904;5.530;2022-10-16T15:09:42;3.05;;;2.30;;
11066;SDS011;29763;50.904;5.530;2022-10-16T15:12:07;1.92;;;1.35;;
11066;SDS011;29763;50.904;5.530;2022-10-16T15:14:33;2.10;;;1.60;;
11066;SDS011;29763;50.904;5.530;2022-10-16T15:16:59;3.00;;;1.60;;
11066;SDS011;29763;50.904;5.530;2022-10-16T15:19:25;2.22;;;1.20;;
11066;SDS011;29763;50.904;5.530;2022-10-16T15:21:50;3.63;;;1.20;;
11066;SDS011;29763;50.904;5.530;2022-10-16T15:24:17;3.97;;;1.40;;
11066;SDS011;29763;50.904;5.530;2022-10-16T15:26:43;3.63;;;1.23;;
11066;SDS011;29763;50.904;5.530;2022-10-16T15:29:11;2.47;;;1.05;;
11066;SDS011;29763;50.904;5.530;2022-10-16T15:31:40;3.25;;;1.20;;
11066;SDS011;29763;50.904;5.530;2022-10-16T15:34:09;2.58;;;1.35;;
11066;SDS011;29763;50.904;5.530;2022-10-16T15:36:37;4.97;;;1.40;;
11066;SDS011;29763;50.904;5.530;2022-10-16T15:39:03;3.05;;;1.20;;
11066;SDS011;29763;50.904;5.530;2022-10-16T15:41:30;3.30;;;1.35;;
11066;SDS011;29763;50.904;5.530;2022-10-16T15:44:05;3.20;;;1.38;;
11066;SDS011;29763;50.904;5.530;2022-10-16T15:46:31;2.03;;;1.30;;
11066;SDS011;29763;50.904;5.530;2022-10-16T15:48:58;4.65;;;1.38;;
11066;SDS011;29763;50.904;5.530;2022-10-16T15:51:27;5.10;;;1.50;;
11066;SDS011;29763;50.904;5.530;2022-10-16T15:53:58;7.47;;;1.90;;
11066;SDS011;29763;50.904;5.530;2022-10-16T15:56:26;7.72;;;1.52;;
11066;SDS011;29763;50.904;5.530;2022-10-16T15:58:53;2.90;;;1.60;;
11066;SDS011;29763;50.904;5.530;2022-10-16T16:01:20;7.05;;;1.60;;
11066;SDS011;29763;50.904;5.530;2022-10-16T16:03:46;5.68;;;1.75;;
11066;SDS011;29763;50.904;5.530;2022-10-16T16:06:22;2.95;;;1.30;;
11066;SDS011;29763;50.904;5.530;2022-10-16T16:09:01;3.47;;;1.40;;
11066;SDS011;29763;50.904;5.530;2022-10-16T16:11:29;6.93;;;1.80;;
11066;SDS011;29763;50.904;5.530;2022-10-16T16:13:57;4.00;;;1.30;;
11066;SDS011;29763;50.904;5.530;2022-10-16T16:16:25;2.53;;;1.38;;
11066;SDS011;29763;50.904;5.530;2022-10-16T16:18:52;4.28;;;1.40;;
11066;SDS011;29763;50.904;5.530;2022-10-16T16:21:18;4.45;;;1.73;;
11066;SDS011;29763;50.904;5.530;2022-10-16T16:23:44;5.30;;;1.77;;
11066;SDS011;29763;50.904;5.530;2022-10-16T16:26:22;4.15;;;1.90;;
11066;SDS011;29763;50.904;5.530;2022-10-16T16:28:51;3.47;;;1.52;;
11066;SDS011;29763;50.904;5.530;2022-10-16T16:31:23;4.18;;;1.40;;
11066;SDS011;29763;50.904;5.530;2022-10-16T16:33:50;1.92;;;1.50;;
11066;SDS011;29763;50.904;5.530;2022-10-16T16:36:17;3.38;;;1.55;;
11066;SDS011;29763;50.904;5.530;2022-10-16T16:38:44;2.40;;;1.48;;
11066;SDS011;29763;50.904;5.530;2022-10-16T16:41:21;2.47;;;1.40;;
11066;SDS011;29763;50.904;5.530;2022-10-16T16:43:49;6.13;;;1.80;;
11066;SDS011;29763;50.904;5.530;2022-10-16T16:46:16;3.65;;;1.50;;
11066;SDS011;29763;50.904;5.530;2022-10-16T16:48:43;6.22;;;1.73;;
11066;SDS011;29763;50.904;5.530;2022-10-16T16:51:12;3.63;;;1.70;;
11066;SDS011;29763;50.904;5.530;2022-10-16T16:53:50;3.45;;;1.75;;
11066;SDS011;29763;50.904;5.530;2022-10-16T16:56:22;4.47;;;1.75;;
11066;SDS011;29763;50.904;5.530;2022-10-16T16:58:49;6.13;;;1.90;;